Time;durP1;ratioP1;P1;durP2;ratioP2;P2;SDS_P1;SDS_P2;PMS_P1;PMS_P2;Temp;Humidity;BMP_temperature;BMP_pressure;BME280_temperature;BME280_humidity;BME280_pressure;Samples;Min_cycle;Max_cycle;Signal;HPM_P1;HPM_P2
2022/04/30 00:01:39;;;;;;;13.73;9.20;;;;;;;12.15;41.06;98486.75;10041056;29;20459;-81
2022/04/30 00:07:00;;;;;;;13.68;8.88;;;;;;;12.15;41.26;98486.75;10041612;29;20045;-82
2022/04/30 00:12:22;;;;;;;13.85;9.38;;;;;;;12.09;41.29;98482.81;10053952;29;20042;-81
2022/04/30 00:17:43;;;;;;;15.45;9.25;;;;;;;12.02;41.80;98484.41;10040426;29;20074;-81
2022/04/30 00:23:04;;;;;;;16.23;10.27;;;;;;;11.96;41.77;98481.16;10052655;29;20486;-81
2022/04/30 00:28:25;;;;;;;17.00;9.90;;;;;;;11.92;41.92;98480.88;10053271;29;20050;-81
2022/04/30 00:33:48;;;;;;;16.08;10.98;;;;;;;11.87;41.94;98476.28;10052743;29;20097;-81
2022/04/30 00:39:09;;;;;;;16.35;10.93;;;;;;;11.79;42.20;98481.28;10039473;29;20050;-81
2022/04/30 00:44:30;;;;;;;18.13;10.60;;;;;;;11.72;42.50;98471.69;10037486;29;20058;-81
2022/04/30 00:49:51;;;;;;;17.20;9.63;;;;;;;11.67;42.67;98467.09;10038345;29;20057;-82
2022/04/30 00:55:11;;;;;;;17.95;11.35;;;;;;;11.62;43.04;98463.28;10050765;29;20045;-81
2022/04/30 01:00:33;;;;;;;12.77;10.05;;;;;;;11.57;42.98;98455.16;10038250;29;20469;-80
2022/04/30 01:06:04;;;;;;;18.05;11.90;;;;;;;11.50;43.34;98451.19;10041536;29;20049;-81
2022/04/30 01:11:25;;;;;;;19.83;10.93;;;;;;;11.45;43.40;98452.94;10037221;29;20070;-81
2022/04/30 01:16:46;;;;;;;16.15;10.40;;;;;;;11.37;43.46;98452.31;10035452;29;20052;-80
2022/04/30 01:22:14;;;;;;;13.88;9.65;;;;;;;11.30;43.94;98453.19;10048664;29;20049;-80
2022/04/30 01:27:35;;;;;;;15.43;10.23;;;;;;;11.23;44.30;98447.72;10035338;29;20056;-82
2022/04/30 01:38:35;;;;;;;15.70;10.50;;;;;;;11.10;44.67;98437.69;10062803;29;20053;-80
2022/04/30 01:43:55;;;;;;;14.40;10.45;;;;;;;10.96;45.10;98437.31;10034513;29;20045;-81
2022/04/30 01:49:16;;;;;;;14.60;10.07;;;;;;;10.88;45.29;98437.44;10046867;29;20062;-81
2022/04/30 01:54:37;;;;;;;15.00;10.70;;;;;;;10.76;46.12;98442.09;10047574;29;20049;-81
2022/04/30 01:59:59;;;;;;;14.15;9.90;;;;;;;10.77;45.98;98442.81;10046495;29;20049;-81
2022/04/30 02:05:20;;;;;;;14.50;10.18;;;;;;;10.69;46.50;98445.72;10045856;29;20045;-81
2022/04/30 02:10:41;;;;;;;21.08;10.60;;;;;;;10.67;46.70;98428.06;10045543;29;20042;-82
2022/04/30 02:16:02;;;;;;;14.50;10.13;;;;;;;10.60;46.86;98424.06;10033671;29;20045;-81
2022/04/30 02:21:23;;;;;;;14.95;9.80;;;;;;;10.56;46.95;98412.59;10033117;29;20053;-80
2022/04/30 02:26:44;;;;;;;13.57;10.30;;;;;;;10.56;47.13;98424.50;10032634;29;20061;-80
2022/04/30 02:32:05;;;;;;;19.48;11.63;;;;;;;10.53;47.10;98414.50;10044762;29;20061;-81
2022/04/30 02:37:26;;;;;;;16.90;10.55;;;;;;;10.51;47.44;98410.78;10056620;29;20053;-81
2022/04/30 02:42:47;;;;;;;13.13;10.35;;;;;;;10.50;47.45;98398.88;10056883;29;20042;-81
2022/04/30 02:48:08;;;;;;;15.88;10.75;;;;;;;10.43;47.59;98399.75;10030709;29;20060;-80
2022/04/30 02:53:28;;;;;;;17.40;10.60;;;;;;;10.38;47.92;98397.94;10044018;29;20049;-81
2022/04/30 03:04:28;;;;;;;16.65;10.77;;;;;;;10.30;48.21;98389.66;10057883;29;20048;-82
2022/04/30 03:09:49;;;;;;;17.60;11.57;;;;;;;10.17;48.32;98389.25;10050507;29;20056;-81
2022/04/30 03:15:11;;;;;;;18.23;11.88;;;;;;;10.03;48.84;98381.22;10061507;29;20042;-80
2022/04/30 03:26:12;;;;;;;20.70;13.20;;;;;;;9.99;49.70;98392.06;10083855;29;20568;-80
2022/04/30 03:31:33;;;;;;;19.83;12.98;;;;;;;9.98;48.97;98384.28;10068431;29;20082;-80
2022/04/30 03:36:53;;;;;;;21.42;13.98;;;;;;;9.92;49.31;98392.16;10088544;29;20044;-80
2022/04/30 03:42:14;;;;;;;23.33;13.77;;;;;;;9.96;49.61;98395.28;10072435;29;20045;-80
2022/04/30 03:47:37;;;;;;;22.30;13.75;;;;;;;9.99;49.91;98394.13;10067457;29;20068;-81
2022/04/30 03:52:58;;;;;;;23.70;14.30;;;;;;;10.00;49.71;98396.34;10080246;29;20041;-80
2022/04/30 03:58:19;;;;;;;17.52;12.77;;;;;;;9.97;50.06;98388.38;10087949;29;20048;-80
2022/04/30 04:03:41;;;;;;;21.63;13.23;;;;;;;10.01;50.23;98386.66;10070332;29;20049;-81
2022/04/30 04:09:02;;;;;;;19.48;13.43;;;;;;;10.01;50.08;98386.66;10063922;29;20045;-80
2022/04/30 04:20:11;;;;;;;19.35;12.80;;;;;;;10.19;50.40;98383.84;10102387;29;20041;-81
2022/04/30 04:31:11;;;;;;;21.00;13.10;;;;;;;10.36;50.51;98381.03;10098168;29;20467;-80
2022/04/30 04:36:32;;;;;;;18.77;12.88;;;;;;;10.41;51.01;98390.47;10069961;29;20077;-80
2022/04/30 04:41:53;;;;;;;17.75;12.98;;;;;;;10.53;50.63;98397.75;10070435;29;20049;-81
2022/04/30 04:47:14;;;;;;;19.60;12.52;;;;;;;10.69;50.58;98397.50;10083681;29;20501;-81
2022/04/30 04:52:35;;;;;;;18.70;13.02;;;;;;;10.76;50.90;98400.19;10085141;29;20046;-81
2022/04/30 04:57:56;;;;;;;17.52;12.85;;;;;;;10.97;50.77;98410.84;10072206;29;20073;-81
2022/04/30 05:03:16;;;;;;;19.95;13.57;;;;;;;11.31;50.76;98403.63;10072390;29;20056;-81
2022/04/30 05:08:37;;;;;;;23.70;13.93;;;;;;;11.67;50.35;98402.78;10071272;29;20507;-81
2022/04/30 05:13:58;;;;;;;21.08;15.07;;;;;;;11.98;50.35;98406.53;10071267;29;20045;-81
2022/04/30 05:19:18;;;;;;;23.70;15.00;;;;;;;12.46;49.74;98407.78;10085248;29;20045;-81
2022/04/30 05:24:39;;;;;;;23.33;15.70;;;;;;;12.93;48.97;98408.94;10068865;29;20049;-81
2022/04/30 05:30:00;;;;;;;22.52;15.65;;;;;;;13.67;48.48;98409.03;10100601;29;20456;-80
2022/04/30 05:35:21;;;;;;;19.67;15.13;;;;;;;15.02;47.52;98402.13;10071969;29;20396;-81
2022/04/30 05:40:42;;;;;;;22.20;14.18;;;;;;;16.41;41.58;98412.97;10069808;29;20048;-81
2022/04/30 05:46:02;;;;;;;19.13;14.00;;;;;;;15.65;41.67;98414.34;10066371;29;20056;-80
2022/04/30 05:51:24;;;;;;;21.40;13.60;;;;;;;15.11;42.61;98408.97;10079451;29;20053;-81
2022/04/30 05:56:45;;;;;;;19.52;13.13;;;;;;;14.85;44.05;98408.09;10083088;29;20507;-80
2022/04/30 06:02:05;;;;;;;19.38;13.43;;;;;;;15.10;42.76;98410.31;10076187;29;20053;-80
2022/04/30 06:07:30;;;;;;;20.60;13.25;;;;;;;16.60;42.74;98410.53;10072357;29;20396;-83
2022/04/30 06:12:51;;;;;;;16.77;12.73;;;;;;;17.93;40.52;98411.75;10071994;29;20077;-83
2022/04/30 06:18:11;;;;;;;16.08;11.80;;;;;;;21.00;38.70;98408.03;10084062;29;20097;-83
2022/04/30 06:23:32;;;;;;;15.90;10.48;;;;;;;24.52;34.57;98410.16;10071074;29;20045;-82
2022/04/30 06:28:53;;;;;;;12.55;9.40;;;;;;;27.63;30.69;98422.59;10070825;29;20055;-81
2022/04/30 06:34:14;;;;;;;14.15;9.43;;;;;;;28.34;25.73;98431.16;10070933;29;20105;-81
2022/04/30 06:39:35;;;;;;;11.30;8.05;;;;;;;29.39;24.95;98430.34;10057969;29;20456;-81
2022/04/30 06:44:55;;;;;;;12.88;8.77;;;;;;;28.82;22.81;98427.91;10069635;29;20072;-80
2022/04/30 06:50:16;;;;;;;10.20;8.05;;;;;;;28.45;21.91;98429.81;10057625;29;20109;-81
2022/04/30 07:06:57;;;;;;;18.27;10.68;;;;;;;24.61;22.86;98424.59;10096698;29;20052;-81
2022/04/30 07:12:18;;;;;;;15.18;8.65;;;;;;;24.10;22.88;98418.38;10069602;29;20072;-81
2022/04/30 07:17:39;;;;;;;12.65;8.90;;;;;;;23.58;23.74;98415.63;10069549;29;20520;-81
2022/04/30 07:22:59;;;;;;;16.92;9.18;;;;;;;23.14;23.75;98426.50;10069391;29;20093;-81
2022/04/30 07:28:22;;;;;;;11.27;8.25;;;;;;;22.71;24.11;98416.69;10082436;29;20057;-81
2022/04/30 07:33:43;;;;;;;12.82;7.85;;;;;;;22.99;23.94;98419.66;10057293;29;20123;-81
2022/04/30 07:39:03;;;;;;;11.10;8.32;;;;;;;22.67;23.63;98416.53;10069287;29;20053;-79
2022/04/30 07:44:26;;;;;;;13.43;8.88;;;;;;;22.09;24.63;98418.97;10069508;29;20041;-81
2022/04/30 07:49:48;;;;;;;11.75;7.93;;;;;;;21.14;24.41;98416.38;10069829;29;20064;-81
2022/04/30 07:55:09;;;;;;;11.77;7.38;;;;;;;21.24;24.89;98425.25;10070985;29;20377;-81
2022/04/30 08:00:29;;;;;;;14.90;7.43;;;;;;;23.52;25.03;98424.00;10089121;29;20488;-81
2022/04/30 08:05:50;;;;;;;11.98;6.22;;;;;;;28.30;21.32;98429.00;10063089;29;20049;-83
2022/04/30 08:11:12;;;;;;;9.75;6.72;;;;;;;31.63;18.13;98420.09;10062954;29;20049;-83
2022/04/30 08:16:33;;;;;;;13.25;6.50;;;;;;;33.21;16.35;98419.50;10075649;29;20045;-83
2022/04/30 08:21:54;;;;;;;10.77;5.28;;;;;;;36.26;14.87;98419.03;10075576;29;20484;-83
2022/04/30 08:27:34;;;;;;;;;;;;;;;32.99;12.11;98420.47;10077888;29;20045;-83
2022/04/30 08:32:56;;;;;;;9.20;5.38;;;;;;;30.51;14.57;98411.09;10087835;29;19935;-83
2022/04/30 08:38:16;;;;;;;9.80;6.35;;;;;;;28.91;15.66;98408.59;10075072;29;20044;-83
2022/04/30 08:43:38;;;;;;;11.07;6.60;;;;;;;27.30;16.79;98405.00;10061617;29;20101;-82
2022/04/30 08:48:59;;;;;;;11.13;6.32;;;;;;;26.93;17.47;98408.84;10074510;29;20092;-82
2022/04/30 08:54:20;;;;;;;10.80;6.15;;;;;;;28.70;17.63;98405.59;10061498;29;20045;-82
2022/04/30 08:59:42;;;;;;;11.33;6.37;;;;;;;30.53;15.71;98399.56;10061429;29;20049;-82
2022/04/30 09:05:03;;;;;;;10.88;5.93;;;;;;;30.19;15.61;98406.06;10086404;29;20105;-83
2022/04/30 09:10:24;;;;;;;;;;;;;;;29.68;15.72;98394.50;10061686;29;20053;-84
2022/04/30 09:15:46;;;;;;;13.50;5.88;;;;;;;30.27;16.25;98388.81;10086495;29;19930;-85
2022/04/30 09:21:13;;;;;;;9.52;6.38;;;;;;;32.07;14.86;98398.19;10073348;29;20049;-85
2022/04/30 09:26:39;;;;;;;12.20;5.93;;;;;;;31.71;14.50;98396.25;10060376;29;20045;-86
2022/04/30 09:32:00;;;;;;;10.13;6.07;;;;;;;32.69;14.80;98395.47;10073078;29;20487;-85
2022/04/30 09:43:05;;;;;;;12.50;5.83;;;;;;;33.79;13.68;98377.47;10074880;29;20097;-86
2022/04/30 09:54:07;;;;;;;;;;;;;;;35.26;12.84;98369.03;10075000;29;20476;-83
2022/04/30 09:59:31;;;;;;;10.30;5.82;;;;;;;36.19;13.40;98359.63;10097673;29;19997;-83
2022/04/30 10:04:52;;;;;;;7.70;5.43;;;;;;;37.13;12.10;98366.53;10058898;29;20097;-82
2022/04/30 10:10:21;;;;;;;9.20;5.70;;;;;;;37.29;12.20;98357.34;10059106;29;20049;-83
2022/04/30 10:15:46;;;;;;;11.20;6.17;;;;;;;35.16;11.39;98348.94;10072221;29;20068;-83
2022/04/30 10:21:19;;;;;;;10.20;5.85;;;;;;;30.54;14.38;98354.94;10070949;29;20045;-81
2022/04/30 10:26:57;;;;;;;9.77;6.20;;;;;;;28.76;16.65;98341.72;10058603;29;20045;-82
2022/04/30 10:32:38;;;;;;;9.43;6.32;;;;;;;26.85;16.94;98346.44;10065271;29;20074;-80
2022/04/30 10:38:19;;;;;;;9.02;5.80;;;;;;;25.53;19.06;98341.53;10071504;29;20041;-80
2022/04/30 10:43:40;;;;;;;8.23;5.43;;;;;;;24.53;18.73;98328.13;10057923;29;20053;-80
2022/04/30 10:49:02;;;;;;;11.40;6.35;;;;;;;25.10;20.24;98332.19;10057447;29;20136;-80
2022/04/30 10:54:23;;;;;;;9.48;6.05;;;;;;;25.95;19.94;98327.25;10038236;29;20090;-80
2022/04/30 10:59:55;;;;;;;8.98;4.60;;;;;;;27.41;18.51;98328.50;10042184;29;20416;-80
2022/04/30 11:05:24;;;;;;;9.67;5.70;;;;;;;26.34;18.35;98328.53;10048634;29;20505;-80
2022/04/30 11:10:50;;;;;;;9.02;4.97;;;;;;;24.74;19.82;98310.03;10036314;29;20041;-81
2022/04/30 11:16:14;;;;;;;9.90;4.95;;;;;;;24.19;20.15;98311.66;10049091;29;20049;-80
2022/04/30 11:21:57;;;;;;;9.02;5.10;;;;;;;23.67;20.44;98303.31;10036639;29;20041;-80
2022/04/30 11:27:18;;;;;;;8.13;5.18;;;;;;;23.42;20.94;98298.38;10047616;29;20080;-80
2022/04/30 11:32:39;;;;;;;13.38;5.82;;;;;;;23.12;21.44;98298.31;10067102;29;20081;-81
2022/04/30 11:38:07;;;;;;;9.95;5.25;;;;;;;23.02;21.91;98307.31;10056359;29;20041;-81
2022/04/30 11:43:28;;;;;;;8.73;4.65;;;;;;;23.13;21.78;98302.59;10061070;29;20056;-79
2022/04/30 11:48:49;;;;;;;7.70;4.13;;;;;;;23.10;21.82;98287.59;10089426;29;20065;-81
2022/04/30 11:54:12;;;;;;;7.20;3.97;;;;;;;23.13;21.71;98285.50;10076548;29;20488;-80
2022/04/30 11:59:36;;;;;;;8.70;3.42;;;;;;;23.30;21.59;98280.97;10060738;29;20136;-79
2022/04/30 12:05:03;;;;;;;9.20;3.50;;;;;;;23.26;21.74;98283.72;10059650;29;20445;-81
2022/04/30 12:10:30;;;;;;;5.03;3.15;;;;;;;23.05;21.21;98274.63;10055663;29;20041;-81
2022/04/30 12:16:06;;;;;;;11.75;2.83;;;;;;;23.08;21.39;98279.00;10059825;29;20057;-81
2022/04/30 12:27:10;;;;;;;6.10;3.17;;;;;;;22.65;21.15;98267.81;10062387;29;20042;-81
2022/04/30 12:32:33;;;;;;;7.13;3.58;;;;;;;22.85;21.25;98262.69;10047419;29;20051;-83
2022/04/30 12:38:13;;;;;;;8.85;3.53;;;;;;;22.60;21.54;98260.56;10049829;29;20405;-85
2022/04/30 12:43:36;;;;;;;9.27;3.60;;;;;;;22.37;21.56;98240.00;10023509;29;20046;-83
2022/04/30 12:48:56;;;;;;;5.68;3.60;;;;;;;22.08;21.84;98254.78;10023935;29;20528;-83
2022/04/30 12:54:17;;;;;;;6.18;2.97;;;;;;;21.96;22.29;98241.63;10008562;29;20076;-81
2022/04/30 12:59:38;;;;;;;8.57;3.15;;;;;;;21.92;22.30;98237.94;10045080;29;20132;-81
2022/04/30 13:05:00;;;;;;;4.45;3.13;;;;;;;21.78;22.60;98234.66;10074252;29;20051;-81
2022/04/30 13:16:05;;;;;;;5.32;3.00;;;;;;;22.17;22.59;98222.34;10078568;29;20045;-80
2022/04/30 13:21:26;;;;;;;6.18;3.13;;;;;;;21.78;22.26;98235.38;10073541;29;20097;-80
2022/04/30 13:26:47;;;;;;;8.43;3.80;;;;;;;21.15;22.72;98222.69;10073393;29;20041;-80
2022/04/30 13:32:10;;;;;;;3.63;2.78;;;;;;;20.61;23.12;98221.53;10073388;29;20057;-80
2022/04/30 13:37:31;;;;;;;4.72;3.15;;;;;;;20.49;23.56;98204.06;10073560;29;20045;-81
2022/04/30 13:42:51;;;;;;;8.02;2.50;;;;;;;21.28;23.24;98203.97;10072743;29;20045;-80
2022/04/30 13:48:15;;;;;;;5.57;3.22;;;;;;;21.63;22.20;98213.59;10060792;29;20072;-80
2022/04/30 13:53:37;;;;;;;7.35;2.67;;;;;;;21.67;22.08;98208.75;10059781;29;20511;-80
2022/04/30 13:58:58;;;;;;;4.88;2.58;;;;;;;21.35;22.43;98190.69;10085181;29;20045;-81
2022/04/30 14:04:19;;;;;;;6.68;2.70;;;;;;;20.36;22.78;98183.03;10059413;29;20049;-81
2022/04/30 14:09:40;;;;;;;5.85;2.90;;;;;;;19.85;23.91;98180.44;10059255;29;20053;-80
2022/04/30 14:15:21;;;;;;;4.72;2.55;;;;;;;19.99;23.78;98181.69;10063767;29;20045;-81
2022/04/30 14:20:43;;;;;;;3.72;2.15;;;;;;;19.93;23.59;98181.47;10071756;29;20052;-78
2022/04/30 14:26:05;;;;;;;7.53;3.00;;;;;;;19.79;23.79;98183.03;10059106;29;20049;-83
2022/04/30 14:31:26;;;;;;;5.35;2.10;;;;;;;19.92;23.89;98173.63;10071604;29;20053;-82
2022/04/30 14:36:49;;;;;;;3.60;2.05;;;;;;;19.86;23.85;98174.09;10043304;29;20129;-83
2022/04/30 14:42:10;;;;;;;4.63;2.27;;;;;;;19.96;23.49;98179.44;10083432;29;20049;-83
2022/04/30 14:47:31;;;;;;;4.55;2.42;;;;;;;19.67;23.13;98175.50;10083659;29;20113;-82
2022/04/30 14:52:54;;;;;;;3.95;2.28;;;;;;;19.61;23.53;98175.28;10058333;29;20396;-82
2022/04/30 14:58:15;;;;;;;6.47;2.50;;;;;;;19.35;23.64;98169.28;10083032;29;20045;-82
2022/04/30 15:03:37;;;;;;;5.18;2.70;;;;;;;19.15;23.68;98160.72;10069594;29;20400;-81
2022/04/30 15:08:58;;;;;;;4.70;2.33;;;;;;;19.04;23.97;98167.34;10082908;29;20045;-82
2022/04/30 15:14:18;;;;;;;4.72;2.10;;;;;;;19.08;23.91;98158.28;10057391;29;20081;-82
2022/04/30 15:19:39;;;;;;;5.18;2.70;;;;;;;19.05;23.66;98151.81;10069816;29;20049;-83
2022/04/30 15:25:02;;;;;;;3.65;2.28;;;;;;;19.02;23.79;98155.94;10070000;29;20552;-84
2022/04/30 15:30:23;;;;;;;5.88;2.15;;;;;;;19.01;23.56;98150.91;10057002;29;20476;-84
2022/04/30 15:35:44;;;;;;;4.68;2.45;;;;;;;18.63;23.38;98155.69;10056984;29;20049;-84
2022/04/30 15:41:04;;;;;;;4.30;2.03;;;;;;;18.41;23.74;98147.69;10069350;29;20053;-83
2022/04/30 15:52:05;;;;;;;3.08;1.70;;;;;;;18.13;23.54;98132.31;10084774;29;20101;-84
2022/04/30 15:57:26;;;;;;;3.75;2.03;;;;;;;18.06;23.70;98144.75;10056391;29;20109;-84
2022/04/30 16:02:47;;;;;;;2.92;1.75;;;;;;;18.04;23.57;98139.72;10068920;29;20045;-87
2022/04/30 16:08:09;;;;;;;8.10;2.90;;;;;;;17.89;23.53;98132.72;10069137;29;20049;-87
2022/04/30 16:13:30;;;;;;;7.40;2.47;;;;;;;17.94;23.59;98125.88;10069091;29;20048;-88
2022/04/30 16:18:52;;;;;;;5.10;2.20;;;;;;;17.96;23.52;98120.34;10061524;29;20049;-87
2022/04/30 16:24:14;;;;;;;4.45;1.95;;;;;;;18.02;23.41;98117.75;10075610;29;20060;-85
2022/04/30 16:29:35;;;;;;;5.93;2.80;;;;;;;17.99;23.25;98121.88;10062996;29;20113;-86
2022/04/30 16:34:55;;;;;;;4.15;1.90;;;;;;;17.82;23.33;98108.38;10075200;29;20083;-84
2022/04/30 16:40:16;;;;;;;3.70;1.55;;;;;;;17.63;23.41;98109.63;10061985;29;20052;-86
2022/04/30 16:45:37;;;;;;;5.72;2.80;;;;;;;17.54;23.26;98101.41;10061885;29;20485;-86
2022/04/30 17:02:31;;;;;;;;;;;;;;;17.48;22.67;98106.81;10069884;29;20049;-86
2022/04/30 17:07:55;;;;;;;5.10;2.47;;;;;;;17.36;22.57;98113.31;10086635;29;20431;-86
2022/04/30 17:13:16;;;;;;;3.83;1.80;;;;;;;17.24;22.04;98114.84;10074018;29;20101;-85
2022/04/30 17:18:38;;;;;;;4.07;1.50;;;;;;;17.10;22.24;98112.09;10060630;29;20041;-84
2022/04/30 17:23:59;;;;;;;3.08;1.52;;;;;;;16.88;21.76;98112.47;10073365;29;20500;-77
2022/04/30 17:29:20;;;;;;;4.53;2.00;;;;;;;16.74;22.12;98120.22;10072747;29;20045;-79
2022/04/30 17:40:20;;;;;;;9.98;4.40;;;;;;;16.36;22.26;98121.81;10087922;29;20045;-84
2022/04/30 17:45:49;;;;;;;6.20;4.10;;;;;;;16.23;22.28;98116.94;10067517;29;20068;-83
2022/04/30 17:51:11;;;;;;;6.70;3.53;;;;;;;16.08;22.45;98112.66;10084389;29;20045;-81
2022/04/30 17:56:31;;;;;;;7.40;3.60;;;;;;;15.90;22.52;98112.41;10072120;29;20053;-80
2022/04/30 18:01:53;;;;;;;7.75;3.15;;;;;;;15.81;22.42;98121.06;10085174;29;20496;-78
2022/04/30 18:07:14;;;;;;;6.80;3.50;;;;;;;15.65;22.49;98115.31;10072602;29;20049;-78
2022/04/30 18:12:36;;;;;;;10.10;4.18;;;;;;;15.46;22.67;98119.19;10060863;29;20109;-77
2022/04/30 18:17:57;;;;;;;9.23;5.53;;;;;;;15.33;22.90;98126.22;10067250;29;20393;-78
2022/04/30 18:23:18;;;;;;;8.43;5.07;;;;;;;15.18;23.05;98119.09;10099131;29;20049;-78
2022/04/30 18:28:40;;;;;;;8.25;4.75;;;;;;;15.08;23.30;98126.25;10100125;29;20049;-78
2022/04/30 18:34:01;;;;;;;8.40;4.70;;;;;;;14.93;23.52;98138.75;10122379;29;20088;-80
2022/04/30 18:45:48;;;;;;;9.95;4.78;;;;;;;14.67;24.17;98132.38;12127428;23;20032;-78
2022/04/30 19:03:05;;;;;;;12.20;5.53;;;;;;;14.31;24.77;98147.81;10081833;29;20049;-79
2022/04/30 19:08:26;;;;;;;13.93;8.07;;;;;;;14.21;25.11;98152.81;10095411;29;20033;-80
2022/04/30 19:13:47;;;;;;;11.45;7.63;;;;;;;14.07;25.28;98158.28;10087719;29;20033;-78
2022/04/30 19:19:08;;;;;;;11.63;6.60;;;;;;;13.95;25.53;98158.31;10107863;29;20056;-78
2022/04/30 19:24:30;;;;;;;12.30;6.57;;;;;;;13.84;25.99;98159.03;11024859;23;20052;-80
2022/04/30 19:29:51;;;;;;;10.85;6.35;;;;;;;13.75;25.98;98162.69;10105308;29;20060;-78
2022/04/30 19:41:28;;;;;;;10.32;6.47;;;;;;;13.65;26.72;98165.59;10643325;23;20068;-80
2022/04/30 19:46:49;;;;;;;10.82;5.88;;;;;;;13.56;26.66;98166.41;10069874;29;20114;-78
2022/04/30 19:52:12;;;;;;;9.23;6.18;;;;;;;13.54;26.93;98166.28;10072419;29;20053;-77
2022/04/30 19:57:34;;;;;;;13.80;8.10;;;;;;;13.49;27.24;98163.84;10609436;23;20056;-80
2022/04/30 20:02:56;;;;;;;13.80;7.68;;;;;;;13.47;27.03;98167.25;10123603;29;20084;-78
2022/04/30 20:08:17;;;;;;;14.77;7.68;;;;;;;13.49;27.24;98163.84;10102428;29;20049;-80
2022/04/30 20:19:18;;;;;;;10.38;6.38;;;;;;;13.39;27.96;98161.13;10085343;29;20473;-80
2022/04/30 20:24:40;;;;;;;15.27;7.10;;;;;;;13.38;27.66;98166.00;10065412;29;20052;-80
2022/04/30 20:30:01;;;;;;;11.18;7.57;;;;;;;13.29;28.34;98164.03;10074610;29;20045;-79
2022/04/30 20:41:22;;;;;;;14.32;9.43;;;;;;;13.11;28.59;98174.03;10070205;29;20041;-80
2022/04/30 20:46:43;;;;;;;16.85;10.55;;;;;;;13.01;28.90;98176.91;10057153;29;20046;-79
2022/04/30 20:52:05;;;;;;;15.32;9.65;;;;;;;12.85;29.42;98178.69;10047701;29;20057;-79
2022/04/30 20:57:25;;;;;;;20.95;11.65;;;;;;;12.76;29.30;98180.22;10055017;29;20050;-80
2022/04/30 21:02:48;;;;;;;20.10;12.95;;;;;;;12.77;29.56;98184.47;10068935;29;20405;-79
2022/04/30 21:08:10;;;;;;;20.23;13.17;;;;;;;12.83;29.50;98184.13;10091649;29;20101;-79
2022/04/30 21:13:31;;;;;;;20.60;13.02;;;;;;;12.81;29.51;98184.00;10066529;29;20286;-79
2022/04/30 21:18:52;;;;;;;20.50;14.65;;;;;;;12.72;29.60;98179.94;10053816;29;20053;-79
2022/04/30 21:24:13;;;;;;;26.48;15.45;;;;;;;12.58;30.20;98185.34;10071743;29;20045;-80
2022/04/30 21:29:34;;;;;;;25.63;15.57;;;;;;;12.55;30.29;98183.75;10085264;29;20053;-79
2022/04/30 21:34:55;;;;;;;22.10;14.43;;;;;;;12.54;30.33;98184.31;10071947;29;20105;-80
2022/04/30 21:41:52;;;;;;;21.90;15.02;;;;;;;12.54;30.26;98173.13;10071447;29;20049;-80
2022/04/30 21:45:57;;;;;;;22.50;14.20;;;;;;;12.57;30.40;98183.16;10086747;29;20056;-80
2022/04/30 21:51:17;;;;;;;19.67;13.80;;;;;;;12.57;30.49;98180.34;10084767;29;20100;-80
2022/04/30 22:02:18;;;;;;;22.02;13.63;;;;;;;12.50;30.90;98178.47;10088242;29;20041;-80
2022/04/30 22:07:39;;;;;;;20.23;11.30;;;;;;;12.45;30.89;98190.72;10070374;29;20041;-80
2022/04/30 22:13:00;;;;;;;20.80;12.95;;;;;;;12.39;31.23;98174.25;10095779;29;20041;-79
2022/04/30 22:18:23;;;;;;;19.17;12.43;;;;;;;12.36;31.53;98180.31;10069580;29;20401;-80
2022/04/30 22:23:43;;;;;;;22.30;14.43;;;;;;;12.29;31.84;98177.09;10070268;29;20082;-80
2022/04/30 22:29:04;;;;;;;23.27;14.50;;;;;;;12.27;32.02;98179.78;10081471;29;20052;-80
2022/04/30 22:34:25;;;;;;;22.23;14.38;;;;;;;12.23;32.15;98185.09;10081972;29;20041;-80
2022/04/30 22:45:25;;;;;;;22.77;13.52;;;;;;;12.13;32.63;98187.19;10096427;29;20072;-80
2022/04/30 22:50:45;;;;;;;24.98;13.52;;;;;;;12.10;32.82;98180.00;10067995;29;20109;-80
2022/04/30 22:56:06;;;;;;;20.67;13.88;;;;;;;12.04;33.15;98177.50;10080587;29;20068;-80
2022/04/30 23:01:27;;;;;;;21.98;13.90;;;;;;;11.97;33.56;98175.63;10110047;23;20020;-80
2022/04/30 23:06:49;;;;;;;21.02;13.32;;;;;;;11.89;33.62;98174.34;10030438;29;20400;-79
2022/04/30 23:12:09;;;;;;;23.70;14.23;;;;;;;11.84;34.17;98167.00;10029210;29;20057;-79
2022/04/30 23:17:30;;;;;;;23.15;13.63;;;;;;;11.81;34.36;98174.50;10029684;29;20057;-80
2022/04/30 23:22:51;;;;;;;21.63;14.38;;;;;;;11.75;34.51;98160.81;10030195;29;20046;-79
2022/04/30 23:28:13;;;;;;;21.33;13.75;;;;;;;11.74;34.68;98159.34;10061649;29;20235;-80
2022/04/30 23:33:34;;;;;;;18.73;13.15;;;;;;;11.71;35.01;98154.94;10049826;29;20412;-79
2022/04/30 23:38:55;;;;;;;24.38;13.27;;;;;;;11.66;35.26;98152.44;10050364;29;20397;-80
2022/04/30 23:44:16;;;;;;;22.75;12.57;;;;;;;11.63;35.32;98145.97;10062789;29;20102;-80
2022/04/30 23:49:37;;;;;;;20.45;13.02;;;;;;;11.59;35.53;98158.97;10049473;29;20045;-80
2022/04/30 23:54:59;;;;;;;21.50;13.02;;;;;;;11.52;35.60;98149.41;10037214;29;20045;-79
